Vicksburg, Mississippi
Current Conditions -  °F | °C
As of 11:15 AM on Sunday 23 Nov 2014 (Local Time) from KVKS Reporting Station
Haze Haze  
Wind Chill: 64°   Ceiling: 1900
Heat Index: 64°   Visibility: 2mi
Dew Point: 63°   Wind: 14mph
Humidity: 94%   Direction: 200°SSW
Pressure: 29.55"   Gusts: NA
Location:  32.35°N, 90.88°W
Report Text: KVKS 231715Z AUTO 20012KT 2SM BR SCT015 BKN019 BKN025 18/17 A2955 RMK A01
Loading
Personal Weather Stations






























Interactive Weather Map New forecast layout! Learn more

10-Day Weather Forecast

Advertisements
Track Severe Weather on mobile